Time,TemperatureF,DewpointF,PressureIn,WindDirection,WindDirectionDegrees,WindSpeedMPH,WindSpeedGustMPH,Humidity,HourlyPrecipIn,Conditions,Clouds,dailyrainin,SoftwareType,DateUTC
2013-02-10 00:09:00,37.9,36.3,29.43,ESE,112,7.3,-999.0,94,-99.99,,,0.00,Acu-Link.com,2013-02-10 06:09:00,
2013-02-10 00:24:00,37.9,36.6,29.40,East,90,5.3,-999.0,95,-99.99,,,0.00,Acu-Link.com,2013-02-10 06:24:00,
2013-02-10 00:39:00,37.8,36.5,29.41,SSE,157,9.9,-999.0,95,-99.99,,,0.00,Acu-Link.com,2013-02-10 06:39:00,
2013-02-10 00:55:00,37.8,36.5,29.40,East,90,4.7,-999.0,95,-99.99,,,0.00,Acu-Link.com,2013-02-10 06:55:00,
2013-02-10 01:10:00,37.8,36.8,29.37,East,90,10.4,-999.0,96,-99.99,,,0.00,Acu-Link.com,2013-02-10 07:10:00,
2013-02-10 01:25:00,37.8,36.8,29.38,ESE,112,4.7,-999.0,96,-99.99,,,0.00,Acu-Link.com,2013-02-10 07:25:00,
2013-02-10 01:41:00,37.8,36.8,29.35,ESE,112,13.0,-999.0,96,-99.99,,,0.00,Acu-Link.com,2013-02-10 07:41:00,
2013-02-10 01:56:00,37.8,36.8,29.34,ESE,112,8.3,-999.0,96,-99.99,,,0.01,Acu-Link.com,2013-02-10 07:56:00,
2013-02-10 02:11:00,37.8,36.8,29.32,ESE,112,7.8,-999.0,96,-99.99,,,0.01,Acu-Link.com,2013-02-10 08:11:00,
2013-02-10 02:27:00,37.8,36.8,29.32,SSE,157,4.7,-999.0,96,-99.99,,,0.02,Acu-Link.com,2013-02-10 08:27:00,
2013-02-10 02:42:00,37.8,37.0,29.31,SSE,157,5.3,-999.0,97,-99.99,,,0.02,Acu-Link.com,2013-02-10 08:42:00,
2013-02-10 02:57:00,37.8,37.0,29.30,SE,135,2.2,-999.0,97,-99.99,,,0.02,Acu-Link.com,2013-02-10 08:57:00,
2013-02-10 03:19:00,37.8,37.0,29.29,SE,135,5.8,-999.0,97,-99.99,,,0.02,Acu-Link.com,2013-02-10 09:19:00,
2013-02-10 03:34:00,37.8,37.0,29.28,SE,135,4.7,-999.0,97,-99.99,,,0.03,Acu-Link.com,2013-02-10 09:34:00,
2013-02-10 03:49:00,37.8,37.0,29.25,East,90,6.3,-999.0,97,-99.99,,,0.03,Acu-Link.com,2013-02-10 09:49:00,
2013-02-10 04:04:00,37.8,37.3,29.22,SE,135,3.7,-999.0,98,-99.99,,,0.04,Acu-Link.com,2013-02-10 10:04:00,
2013-02-10 04:19:00,37.9,37.4,29.20,ESE,112,6.3,-999.0,98,-99.99,,,0.04,Acu-Link.com,2013-02-10 10:19:00,
2013-02-10 04:35:00,38.3,37.8,29.17,ENE,67,5.8,-999.0,98,-99.99,,,0.04,Acu-Link.com,2013-02-10 10:35:00,
2013-02-10 04:50:00,38.8,38.3,29.16,ESE,112,4.7,-999.0,98,-99.99,,,0.04,Acu-Link.com,2013-02-10 10:50:00,
2013-02-10 05:05:00,39.2,38.7,29.14,ESE,112,5.8,-999.0,98,-99.99,,,0.04,Acu-Link.com,2013-02-10 11:05:00,
2013-02-10 05:21:00,39.4,38.9,29.14,ESE,112,5.3,-999.0,98,-99.99,,,0.04,Acu-Link.com,2013-02-10 11:21:00,
2013-02-10 05:36:00,39.9,39.4,29.13,SSE,157,4.7,-999.0,98,-99.99,,,0.04,Acu-Link.com,2013-02-10 11:36:00,
2013-02-10 05:51:00,39.9,39.1,29.11,SSE,157,6.3,-999.0,97,-99.99,,,0.04,Acu-Link.com,2013-02-10 11:51:00,
2013-02-10 06:07:00,40.1,39.1,29.09,SE,135,3.7,-999.0,96,-99.99,,,0.04,Acu-Link.com,2013-02-10 12:07:00,
2013-02-10 06:22:00,40.1,38.8,29.08,SSW,202,6.3,-999.0,95,-99.99,,,0.04,Acu-Link.com,2013-02-10 12:22:00,
2013-02-10 06:37:00,40.1,38.5,29.08,South,180,2.7,-999.0,94,-99.99,,,0.04,Acu-Link.com,2013-02-10 12:37:00,
2013-02-10 06:52:00,40.1,38.0,29.07,SSW,202,5.8,-999.0,92,-99.99,,,0.04,Acu-Link.com,2013-02-10 12:52:00,
2013-02-10 07:08:00,39.6,37.5,29.08,South,180,4.2,-999.0,92,-99.99,,,0.04,Acu-Link.com,2013-02-10 13:08:00,
2013-02-10 07:23:00,39.2,37.1,29.07,SSE,157,3.7,-999.0,92,-99.99,,,0.04,Acu-Link.com,2013-02-10 13:23:00,
2013-02-10 07:38:00,37.4,35.8,29.08,SSW,202,11.4,-999.0,94,-99.99,,,0.04,Acu-Link.com,2013-02-10 13:38:00,
2013-02-10 07:53:00,35.2,33.9,29.08,WSW,247,7.3,-999.0,95,-99.99,,,0.04,Acu-Link.com,2013-02-10 13:53:00,
2013-02-10 08:09:00,34.7,33.4,29.08,SE,135,7.3,-999.0,95,-99.99,,,0.04,Acu-Link.com,2013-02-10 14:09:00,
2013-02-10 08:24:00,34.5,33.2,29.07,SW,225,4.7,-999.0,95,-99.99,,,0.04,Acu-Link.com,2013-02-10 14:24:00,
2013-02-10 08:39:00,34.5,33.2,29.08,South,180,3.7,-999.0,95,-99.99,,,0.04,Acu-Link.com,2013-02-10 14:39:00,
2013-02-10 08:55:00,35.2,33.9,29.07,ESE,112,4.2,-999.0,95,-99.99,,,0.04,Acu-Link.com,2013-02-10 14:55:00,
2013-02-10 09:10:00,36.7,35.1,29.08,East,90,3.2,-999.0,94,-99.99,,,0.04,Acu-Link.com,2013-02-10 15:10:00,
2013-02-10 09:25:00,38.3,36.2,29.08,SW,225,3.7,-999.0,92,-99.99,,,0.04,Acu-Link.com,2013-02-10 15:25:00,
2013-02-10 09:41:00,38.5,36.7,29.09,NW,315,6.3,-999.0,93,-99.99,,,0.04,Acu-Link.com,2013-02-10 15:41:00,
2013-02-10 09:56:00,34.9,33.1,29.12,West,270,9.4,-999.0,93,-99.99,,,0.04,Acu-Link.com,2013-02-10 15:56:00,
2013-02-10 10:11:00,34.0,32.2,29.13,NNW,337,6.8,-999.0,93,-99.99,,,0.04,Acu-Link.com,2013-02-10 16:11:00,
2013-02-10 10:26:00,33.3,31.2,29.15,West,270,11.4,-999.0,92,-99.99,,,0.04,Acu-Link.com,2013-02-10 16:26:00,
2013-02-10 10:41:00,32.9,30.6,29.17,NW,315,12.5,-999.0,91,-99.99,,,0.04,Acu-Link.com,2013-02-10 16:41:00,
2013-02-10 10:56:00,32.4,29.8,29.18,NW,315,7.8,-999.0,90,-99.99,,,0.04,Acu-Link.com,2013-02-10 16:56:00,
2013-02-10 11:12:00,31.8,28.9,29.20,NNW,337,10.9,-999.0,89,-99.99,,,0.04,Acu-Link.com,2013-02-10 17:12:00,
2013-02-10 11:27:00,31.6,28.5,29.22,NW,315,7.3,-999.0,88,-99.99,,,0.04,Acu-Link.com,2013-02-10 17:27:00,
2013-02-10 11:42:00,31.6,28.2,29.23,WNW,292,11.4,-999.0,87,-99.99,,,0.04,Acu-Link.com,2013-02-10 17:42:00,
2013-02-10 11:58:00,31.5,28.1,29.24,SW,225,7.3,-999.0,87,-99.99,,,0.04,Acu-Link.com,2013-02-10 17:58:00,
2013-02-10 12:13:00,31.1,27.4,29.27,WNW,292,11.4,-999.0,86,-99.99,,,0.04,Acu-Link.com,2013-02-10 18:13:00,
2013-02-10 12:28:00,31.3,27.6,29.27,West,270,10.9,-999.0,86,-99.99,,,0.04,Acu-Link.com,2013-02-10 18:28:00,
2013-02-10 12:43:00,31.5,27.8,29.28,NW,315,15.0,-999.0,86,-99.99,,,0.04,Acu-Link.com,2013-02-10 18:43:00,
2013-02-10 12:59:00,31.5,27.2,29.29,West,270,9.4,-999.0,84,-99.99,,,0.05,Acu-Link.com,2013-02-10 18:59:00,
2013-02-10 13:14:00,31.3,26.7,29.31,NNW,337,9.4,-999.0,83,-99.99,,,0.05,Acu-Link.com,2013-02-10 19:14:00,
2013-02-10 13:29:00,31.6,26.7,29.32,West,270,11.9,-999.0,82,-99.99,,,0.05,Acu-Link.com,2013-02-10 19:29:00,
2013-02-10 13:44:00,31.6,26.7,29.34,NW,315,9.4,-999.0,82,-99.99,,,0.05,Acu-Link.com,2013-02-10 19:44:00,
2013-02-10 13:59:00,31.5,26.1,29.36,NW,315,7.8,-999.0,80,-99.99,,,0.05,Acu-Link.com,2013-02-10 19:59:00,
2013-02-10 14:15:00,31.3,26.2,29.37,WNW,292,7.3,-999.0,81,-99.99,,,0.05,Acu-Link.com,2013-02-10 20:15:00,
2013-02-10 14:30:00,31.5,25.8,29.38,North,0,5.8,-999.0,79,-99.99,,,0.05,Acu-Link.com,2013-02-10 20:30:00,
2013-02-10 14:45:00,31.1,24.7,29.40,South,180,9.4,-999.0,77,-99.99,,,0.05,Acu-Link.com,2013-02-10 20:45:00,
2013-02-10 15:00:00,30.9,24.2,29.42,West,270,10.4,-999.0,76,-99.99,,,0.05,Acu-Link.com,2013-02-10 21:00:00,
2013-02-10 15:15:00,31.3,25.3,29.43,West,270,8.3,-999.0,78,-99.99,,,0.05,Acu-Link.com,2013-02-10 21:15:00,
2013-02-10 15:31:00,31.3,24.6,29.46,West,270,14.5,-999.0,76,-99.99,,,0.05,Acu-Link.com,2013-02-10 21:31:00,
2013-02-10 15:46:00,31.3,24.6,29.48,WSW,247,10.4,-999.0,76,-99.99,,,0.05,Acu-Link.com,2013-02-10 21:46:00,
2013-02-10 16:01:00,31.5,24.8,29.49,WNW,292,8.9,-999.0,76,-99.99,,,0.05,Acu-Link.com,2013-02-10 22:01:00,
2013-02-10 16:17:00,31.6,25.2,29.50,WNW,292,11.9,-999.0,77,-99.99,,,0.05,Acu-Link.com,2013-02-10 22:17:00,
2013-02-10 16:32:00,31.6,25.2,29.51,NNW,337,8.3,-999.0,77,-99.99,,,0.05,Acu-Link.com,2013-02-10 22:32:00,
2013-02-10 16:47:00,31.8,25.1,29.53,NW,315,9.4,-999.0,76,-99.99,,,0.05,Acu-Link.com,2013-02-10 22:47:00,
2013-02-10 17:02:00,31.8,24.5,29.54,WSW,247,9.9,-999.0,74,-99.99,,,0.05,Acu-Link.com,2013-02-10 23:02:00,
2013-02-10 17:18:00,31.8,25.1,29.55,NW,315,9.4,-999.0,76,-99.99,,,0.05,Acu-Link.com,2013-02-10 23:18:00,
2013-02-10 17:33:00,31.8,25.1,29.57,West,270,13.5,-999.0,76,-99.99,,,0.05,Acu-Link.com,2013-02-10 23:33:00,
2013-02-10 17:48:00,31.6,24.9,29.59,NW,315,7.8,-999.0,76,-99.99,,,0.05,Acu-Link.com,2013-02-10 23:48:00,
2013-02-10 18:04:00,31.6,25.2,29.61,WNW,292,6.3,-999.0,77,-99.99,,,0.05,Acu-Link.com,2013-02-11 00:04:00,
2013-02-10 18:19:00,31.8,25.7,29.61,NNW,337,5.3,-999.0,78,-99.99,,,0.05,Acu-Link.com,2013-02-11 00:19:00,
2013-02-10 18:34:00,31.3,26.2,29.62,NNW,337,9.4,-999.0,81,-99.99,,,0.05,Acu-Link.com,2013-02-11 00:34:00,
2013-02-10 18:49:00,31.1,26.6,29.63,WNW,292,8.9,-999.0,83,-99.99,,,0.05,Acu-Link.com,2013-02-11 00:49:00,
2013-02-10 19:04:00,32.4,27.5,29.62,WSW,247,9.9,-999.0,82,-99.99,,,0.05,Acu-Link.com,2013-02-11 01:04:00,
2013-02-10 19:20:00,33.3,27.2,29.64,WNW,292,10.4,-999.0,78,-99.99,,,0.05,Acu-Link.com,2013-02-11 01:20:00,
2013-02-10 19:35:00,33.4,26.7,29.64,NNW,337,10.4,-999.0,76,-99.99,,,0.05,Acu-Link.com,2013-02-11 01:35:00,
2013-02-10 19:50:00,33.1,26.7,29.65,WNW,292,5.3,-999.0,77,-99.99,,,0.05,Acu-Link.com,2013-02-11 01:50:00,
2013-02-10 20:05:00,33.1,25.7,29.67,NW,315,11.9,-999.0,74,-99.99,,,0.05,Acu-Link.com,2013-02-11 02:05:00,
2013-02-10 20:20:00,33.1,26.4,29.68,WNW,292,10.4,-999.0,76,-99.99,,,0.05,Acu-Link.com,2013-02-11 02:20:00,
2013-02-10 20:36:00,33.1,25.7,29.70,NW,315,8.3,-999.0,74,-99.99,,,0.05,Acu-Link.com,2013-02-11 02:36:00,
2013-02-10 20:51:00,32.7,25.7,29.71,WNW,292,9.9,-999.0,75,-99.99,,,0.05,Acu-Link.com,2013-02-11 02:51:00,
2013-02-10 21:07:00,32.4,25.1,29.73,NW,315,18.1,-999.0,74,-99.99,,,0.05,Acu-Link.com,2013-02-11 03:07:00,
2013-02-10 21:22:00,32.4,24.4,29.74,WNW,292,8.3,-999.0,72,-99.99,,,0.05,Acu-Link.com,2013-02-11 03:22:00,
2013-02-10 21:37:00,32.4,24.7,29.75,West,270,11.9,-999.0,73,-99.99,,,0.05,Acu-Link.com,2013-02-11 03:37:00,
2013-02-10 21:52:00,32.2,24.2,29.77,West,270,9.4,-999.0,72,-99.99,,,0.05,Acu-Link.com,2013-02-11 03:52:00,
2013-02-10 22:07:00,31.5,23.2,29.78,NW,315,21.7,-999.0,71,-99.99,,,0.05,Acu-Link.com,2013-02-11 04:07:00,
2013-02-10 22:23:00,30.9,23.6,29.78,NNE,22,11.4,-999.0,74,-99.99,,,0.05,Acu-Link.com,2013-02-11 04:23:00,
2013-02-10 22:38:00,31.1,24.4,29.80,ENE,67,8.3,-999.0,76,-99.99,,,0.05,Acu-Link.com,2013-02-11 04:38:00,
2013-02-10 22:53:00,31.3,23.7,29.80,NNE,22,9.9,-999.0,73,-99.99,,,0.05,Acu-Link.com,2013-02-11 04:53:00,
2013-02-10 23:08:00,30.7,23.4,29.81,WNW,292,7.8,-999.0,74,-99.99,,,0.05,Acu-Link.com,2013-02-11 05:08:00,
2013-02-10 23:23:00,30.4,23.1,29.81,West,270,10.9,-999.0,74,-99.99,,,0.05,Acu-Link.com,2013-02-11 05:23:00,
2013-02-10 23:39:00,30.2,22.6,29.82,WNW,292,8.9,-999.0,73,-99.99,,,0.05,Acu-Link.com,2013-02-11 05:39:00,
2013-02-10 23:54:00,30.0,22.1,29.82,WNW,292,6.8,-999.0,72,-99.99,,,0.05,Acu-Link.com,2013-02-11 05:54:00,